createdAt,value
2023-01-22T00:00:31.561Z,-1.22
2023-01-22T00:01:31.555Z,-1.24
2023-01-22T00:02:31.854Z,-1.25
2023-01-22T00:03:31.684Z,-1.17
2023-01-22T00:04:31.603Z,-1.22
2023-01-22T00:05:31.539Z,-1.24
2023-01-22T00:06:31.194Z,-1.19
2023-01-22T00:07:31.429Z,-1.13
2023-01-22T00:08:31.177Z,-1.24
2023-01-22T00:09:31.405Z,-1.19
2023-01-22T00:10:31.391Z,-1.19
2023-01-22T00:11:31.361Z,-1.21
2023-01-22T00:12:31.368Z,-1.19
2023-01-22T00:13:31.129Z,-1.21
2023-01-22T00:14:31.492Z,-1.21
2023-01-22T00:15:31.043Z,-1.17
2023-01-22T00:16:30.733Z,-1.22
2023-01-22T00:17:31.246Z,-1.17
2023-01-22T00:18:30.968Z,-1.24
2023-01-22T00:19:30.925Z,-1.24
2023-01-22T00:20:31.230Z,-1.14
2023-01-22T00:21:31.181Z,-1.24
2023-01-22T00:22:31.125Z,-1.24
2023-01-22T00:23:30.868Z,-1.24
2023-01-22T00:24:30.828Z,-1.22
2023-01-22T00:25:30.809Z,-1.22
2023-01-22T00:26:31.061Z,-1.22
2023-01-22T00:27:30.760Z,-1.25
2023-01-22T00:28:31.021Z,-1.17
2023-01-22T00:29:30.734Z,-1.11
2023-01-22T00:30:30.701Z,-1.16
2023-01-22T00:31:31.385Z,-1.11
2023-01-22T00:32:30.413Z,-1.07
2023-01-22T00:33:30.915Z,-1.19
2023-01-22T00:34:30.628Z,-1.14
2023-01-22T00:35:30.876Z,-1.11
2023-01-22T00:36:30.631Z,-1.09
2023-01-22T00:37:30.901Z,-1.04
2023-01-22T00:38:30.799Z,-1.11
2023-01-22T00:39:30.513Z,-1.22
2023-01-22T00:40:30.517Z,-1.27
2023-01-22T00:41:30.475Z,-1.22
2023-01-22T00:42:30.709Z,-1.22
2023-01-22T00:43:30.460Z,-1.21
2023-01-22T00:44:30.667Z,-1.17
2023-01-22T00:45:30.686Z,-1.19
2023-01-22T00:46:30.866Z,-1.14
2023-01-22T00:47:30.486Z,-1.24
2023-01-22T00:48:30.349Z,-1.17
2023-01-22T00:49:30.329Z,-1.27
2023-01-22T00:50:30.549Z,-1.21
2023-01-22T00:51:30.592Z,-1.24
2023-01-22T00:52:30.357Z,-1.21
2023-01-22T00:53:30.517Z,-1.19
2023-01-22T00:54:30.473Z,-1.24
2023-01-22T00:55:30.472Z,-1.25
2023-01-22T00:56:30.196Z,-1.21
2023-01-22T00:57:29.885Z,-1.24
2023-01-22T00:58:30.411Z,-1.27
2023-01-22T00:59:30.103Z,-1.27
2023-01-22T01:00:30.204Z,-1.19
2023-01-22T01:01:30.314Z,-1.22
2023-01-22T01:02:30.295Z,-1.14
2023-01-22T01:03:30.268Z,-1.17
2023-01-22T01:04:29.763Z,-1.14
2023-01-22T01:05:30.244Z,-1.17
2023-01-22T01:06:30.205Z,-1.19
2023-01-22T01:07:30.196Z,-1.24
2023-01-22T01:08:29.931Z,-1.19
2023-01-22T01:09:29.917Z,-1.21
2023-01-22T01:10:29.887Z,-1.22
2023-01-22T01:11:30.019Z,-1.24
2023-01-22T01:12:34.170Z,-1.22
2023-01-22T01:13:30.207Z,-1.14
2023-01-22T01:14:29.810Z,-1.16
2023-01-22T01:15:29.767Z,-1.11
2023-01-22T01:16:30.214Z,-1.25
2023-01-22T01:17:29.471Z,-1.25
2023-01-22T01:18:29.708Z,-1.1
2023-01-22T01:19:29.693Z,-1.27
2023-01-22T01:20:29.929Z,-1.14
2023-01-22T01:21:29.656Z,-1.11
2023-01-22T01:22:29.625Z,-1.13
2023-01-22T01:23:29.600Z,-1.27
2023-01-22T01:24:29.840Z,-1.24
2023-01-22T01:25:29.826Z,-1.24
2023-01-22T01:26:29.797Z,-1.22
2023-01-22T01:27:29.775Z,-1.25
2023-01-22T01:28:29.753Z,-1.22
2023-01-22T01:29:29.860Z,-1.21
2023-01-22T01:30:29.709Z,-1.19
2023-01-22T01:31:30.070Z,-1.24
2023-01-22T01:32:29.666Z,-1.19
2023-01-22T01:34:29.642Z,-1.22
2023-01-22T01:35:29.617Z,-1.25
2023-01-22T01:36:52.405Z,-1.17
2023-01-22T01:37:29.588Z,-1.17
2023-01-22T01:38:29.560Z,-1.16
2023-01-22T01:39:29.279Z,-1.19
2023-01-22T01:40:29.511Z,-1.25
2023-01-22T01:41:29.487Z,-1.22
2023-01-22T01:42:29.226Z,-1.07
2023-01-22T01:43:29.192Z,-1.17
2023-01-22T01:44:29.667Z,-1.11
2023-01-22T01:45:29.543Z,-1.22
2023-01-22T01:46:29.509Z,-1.11
2023-01-22T01:47:29.106Z,-1.13
2023-01-22T01:48:29.368Z,-1.13
2023-01-22T01:49:29.068Z,-1.22
2023-01-22T01:50:29.339Z,-1.24
2023-01-22T01:51:29.120Z,-1.22
2023-01-22T01:52:29.291Z,-1.22
2023-01-22T01:53:29.275Z,-1.11
2023-01-22T01:54:29.271Z,-1.21
2023-01-22T01:55:29.193Z,-1.22
2023-01-22T01:56:28.913Z,-1.24
2023-01-22T01:57:28.648Z,-1.22
2023-01-22T01:58:29.141Z,-1.19
2023-01-22T01:59:30.087Z,-1.16
2023-01-22T02:00:30.406Z,-1.13
2023-01-22T02:01:30.173Z,-1.21
2023-01-22T02:02:29.780Z,-1.24
2023-01-22T02:03:30.001Z,-1.22
2023-01-22T02:04:29.971Z,-1.27
2023-01-22T02:05:30.000Z,-1.21
2023-01-22T02:06:29.949Z,-1.11
2023-01-22T02:07:29.977Z,-1.17
2023-01-22T02:08:29.895Z,-1.24
2023-01-22T02:09:29.634Z,-1.27
2023-01-22T02:10:29.601Z,-1.14
2023-01-22T02:11:29.577Z,-1.27
2023-01-22T02:12:29.294Z,-1.25
2023-01-22T02:13:29.538Z,-1.27
2023-01-22T02:14:29.511Z,-1.24
2023-01-22T02:15:29.239Z,-1.22
2023-01-22T02:16:30.125Z,-1.22
2023-01-22T02:17:29.568Z,-1.17
2023-01-22T02:18:29.443Z,-1.22
2023-01-22T02:19:29.161Z,-1.22
2023-01-22T02:20:29.393Z,-1.24
2023-01-22T02:21:29.381Z,-1.17
2023-01-22T02:22:29.390Z,-1.16
2023-01-22T02:23:29.589Z,-1.17
2023-01-22T02:24:29.558Z,-1.17
2023-01-22T02:25:29.295Z,-1.22
2023-01-22T02:26:29.517Z,-1.24
2023-01-22T02:27:28.995Z,-1.27
2023-01-22T02:28:29.249Z,-1.21
2023-01-22T02:29:29.475Z,-1.25
2023-01-22T02:30:29.177Z,-1.27
2023-01-22T02:31:29.689Z,-1.14
2023-01-22T02:32:29.677Z,-1.17
2023-01-22T02:33:29.259Z,-1.25
2023-01-22T02:34:29.503Z,-1.24
2023-01-22T02:35:29.073Z,-1.27
2023-01-22T02:36:30.166Z,-1.25
2023-01-22T02:37:30.162Z,-1.27
2023-01-22T02:38:30.133Z,-1.17
2023-01-22T02:39:30.114Z,-1.19
2023-01-22T02:40:29.838Z,-1.21
2023-01-22T02:41:29.854Z,-1.19
2023-01-22T02:42:29.786Z,-1.25
2023-01-22T02:43:29.775Z,-1.25
2023-01-22T02:44:29.759Z,-1.27
2023-01-22T02:45:30.128Z,-1.27
2023-01-22T02:46:29.970Z,-1.27
2023-01-22T02:47:29.693Z,-1.24
2023-01-22T02:48:30.168Z,-1.27
2023-01-22T02:49:29.767Z,-1.24
2023-01-22T02:50:29.617Z,-1.28
2023-01-22T02:51:29.867Z,-1.27
2023-01-22T02:52:29.851Z,-1.17
2023-01-22T02:53:29.550Z,-1.27
2023-01-22T02:54:29.880Z,-1.27
2023-01-22T02:55:29.776Z,-1.3
2023-01-22T02:56:29.246Z,-1.19
2023-01-22T02:57:29.728Z,-1.24
2023-01-22T02:58:29.451Z,-1.17
2023-01-22T02:59:29.452Z,-1.19
2023-01-22T03:00:29.665Z,-1.22
2023-01-22T03:01:29.676Z,-1.14
2023-01-22T03:02:29.777Z,-1.21
2023-01-22T03:03:29.363Z,-1.17
2023-01-22T03:04:29.865Z,-1.25
2023-01-22T03:05:29.426Z,-1.19
2023-01-22T03:06:29.584Z,-1.22
2023-01-22T03:07:29.263Z,-1.19
2023-01-22T03:08:29.839Z,-1.14
2023-01-22T03:09:29.233Z,-1.24
2023-01-22T03:10:28.959Z,-1.22
2023-01-22T03:11:29.470Z,-1.13
2023-01-22T03:12:29.418Z,-1.16
2023-01-22T03:13:29.403Z,-1.28
2023-01-22T03:14:29.365Z,-1.25
2023-01-22T03:15:29.384Z,-1.21
2023-01-22T03:16:29.066Z,-1.17
2023-01-22T03:17:29.345Z,-1.28
2023-01-22T03:18:29.297Z,-1.21
2023-01-22T03:19:29.014Z,-1.17
2023-01-22T03:20:29.494Z,-1.19
2023-01-22T03:21:29.093Z,-1.22
2023-01-22T03:22:29.222Z,-1.24
2023-01-22T03:23:28.925Z,-1.14
2023-01-22T03:24:29.300Z,-1.25
2023-01-22T03:25:29.140Z,-1.21
2023-01-22T03:26:28.605Z,-1.17
2023-01-22T03:27:29.094Z,-1.21
2023-01-22T03:28:28.818Z,-1.17
2023-01-22T03:29:29.055Z,-1.17
2023-01-22T03:30:28.775Z,-1.25
2023-01-22T03:31:29.550Z,-1.27
2023-01-22T03:32:29.001Z,-1.22
2023-01-22T03:49:32.476Z,-1.3
2023-01-22T03:50:32.084Z,-1.4
2023-01-22T03:51:32.075Z,-1.3
2023-01-22T03:52:31.768Z,-1.31
2023-01-22T03:53:31.999Z,-1.35
2023-01-22T03:54:32.049Z,-1.35
2023-01-22T03:55:31.801Z,-1.34
2023-01-22T03:56:32.014Z,-1.38
2023-01-22T03:57:31.407Z,-1.37
2023-01-22T03:58:31.894Z,-1.31
2023-01-22T03:59:31.869Z,-1.38
2023-01-22T04:00:31.598Z,-1.3
2023-01-22T04:01:31.743Z,-1.31
2023-01-22T04:02:31.982Z,-1.31
2023-01-22T04:03:31.526Z,-1.3
2023-01-22T04:04:31.528Z,-1.38
2023-01-22T04:05:32.101Z,-1.37
2023-01-22T04:06:31.495Z,-1.38
2023-01-22T04:07:31.455Z,-1.42
2023-01-22T04:08:31.428Z,-1.37
2023-01-22T04:09:31.652Z,-1.4
2023-01-22T04:10:31.376Z,-1.43
2023-01-22T04:11:31.626Z,-1.3
2023-01-22T04:12:31.594Z,-1.37
2023-01-22T04:13:31.600Z,-1.42
2023-01-22T04:14:31.562Z,-1.37
2023-01-22T04:15:31.524Z,-1.34
2023-01-22T04:16:31.416Z,-1.35
2023-01-22T04:17:31.577Z,-1.4
2023-01-22T04:18:31.471Z,-1.32
2023-01-22T04:19:31.186Z,-1.31
2023-01-22T04:20:31.426Z,-1.3
2023-01-22T04:21:31.802Z,-1.34
2023-01-22T04:22:31.382Z,-1.3
2023-01-22T04:23:31.365Z,-1.27
2023-01-22T04:24:31.389Z,-1.3
2023-01-22T04:25:31.324Z,-1.22
2023-01-22T04:26:31.330Z,-1.28
2023-01-22T04:27:31.018Z,-1.27
2023-01-22T04:28:31.276Z,-1.16
2023-01-22T04:29:31.243Z,-1.21
2023-01-22T04:30:30.960Z,-1.21
2023-01-22T04:31:31.468Z,-1.22
2023-01-22T04:32:30.908Z,-1.19
2023-01-22T04:33:31.162Z,-1.22
2023-01-22T04:34:31.131Z,-1.3
2023-01-22T04:35:31.127Z,-1.11
2023-01-22T04:36:33.973Z,-1.19
2023-01-22T04:37:30.931Z,-1.24
2023-01-22T04:38:31.063Z,-1.19
2023-01-22T04:39:31.040Z,-1.19
2023-01-22T04:40:31.040Z,-1.22
2023-01-22T04:41:31.010Z,-1.21
2023-01-22T04:42:30.700Z,-1.24
2023-01-22T04:43:30.978Z,-1.22
2023-01-22T04:44:30.954Z,-1.09
2023-01-22T04:45:30.381Z,-1.22
2023-01-22T04:46:30.819Z,-1.14
2023-01-22T04:47:31.663Z,-1.09
2023-01-22T04:48:31.291Z,-1.09
2023-01-22T04:49:31.001Z,-1.1
2023-01-22T04:50:31.247Z,-1.06
2023-01-22T04:51:31.724Z,-1.09
2023-01-22T04:52:31.701Z,-1.13
2023-01-22T04:53:31.560Z,-1.13
2023-01-22T04:54:31.156Z,-1.09
2023-01-22T04:55:31.129Z,-1.09
2023-01-22T04:56:31.115Z,-1.16
2023-01-22T04:57:31.358Z,-1.13
2023-01-22T04:58:31.350Z,-1.14
2023-01-22T04:59:31.332Z,-1.13
2023-01-22T05:00:31.037Z,-1.11
2023-01-22T05:01:30.910Z,-1.14
2023-01-22T05:02:31.360Z,-1.14
2023-01-22T05:03:31.222Z,-1.1
2023-01-22T05:04:30.951Z,-1.03
2023-01-22T05:05:30.726Z,-1.1
2023-01-22T05:06:30.904Z,-1.07
2023-01-22T05:07:31.146Z,-1.1
2023-01-22T05:08:31.367Z,-1.09
2023-01-22T05:09:31.229Z,-1.11
2023-01-22T05:10:31.159Z,-1.21
2023-01-22T05:11:31.088Z,-1.09
2023-01-22T05:12:31.063Z,-1.22
2023-01-22T05:13:31.025Z,-1.27
2023-01-22T05:14:31.031Z,-1.22
2023-01-22T05:15:31.034Z,-1.22
2023-01-22T05:16:30.980Z,-1.17
2023-01-22T05:17:30.702Z,-1.06
2023-01-22T05:18:31.000Z,-1.16
2023-01-22T05:19:30.902Z,-1.13
2023-01-22T05:20:30.873Z,-1.09
2023-01-22T05:21:30.334Z,-1.07
2023-01-22T05:22:30.576Z,-1.16
2023-01-22T05:23:30.552Z,-1.14
2023-01-22T05:24:31.039Z,-1.16
2023-01-22T05:25:30.648Z,-1.14
2023-01-22T05:26:30.503Z,-1.04
2023-01-22T05:27:30.725Z,-1.06
2023-01-22T05:28:30.750Z,-1.06
2023-01-22T05:29:30.429Z,-1.04
2023-01-22T05:30:31.669Z,-1.01
2023-01-22T05:31:31.703Z,-1.04
2023-01-22T05:32:31.288Z,-1.1
2023-01-22T05:33:31.238Z,-1.14
2023-01-22T05:34:31.508Z,-1.03
2023-01-22T05:35:31.483Z,-1.01
2023-01-22T05:36:31.443Z,-1.04
2023-01-22T05:37:30.892Z,-0.98
2023-01-22T05:38:31.404Z,-0.95
2023-01-22T05:39:31.429Z,-0.99
2023-01-22T05:40:36.611Z,-1.04
2023-01-22T05:41:31.641Z,-0.96
2023-01-22T05:42:31.377Z,-0.93
2023-01-22T05:43:31.068Z,-0.96
2023-01-22T05:44:33.277Z,-1.01
2023-01-22T05:45:30.742Z,-1.07
2023-01-22T05:46:31.482Z,-1.07
2023-01-22T05:47:31.213Z,-1.07
2023-01-22T05:48:31.187Z,-1.14
2023-01-22T05:49:30.657Z,-1.16
2023-01-22T05:50:31.144Z,-1.03
2023-01-22T05:51:33.787Z,-1.06
2023-01-22T05:52:31.112Z,-1.1
2023-01-22T05:53:31.078Z,-1.13
2023-01-22T05:54:31.081Z,-1.03
2023-01-22T05:55:31.084Z,-1.03
2023-01-22T05:56:31.140Z,-1.07
2023-01-22T05:57:31.236Z,-1.07
2023-01-22T05:58:30.725Z,-1.03
2023-01-22T05:59:30.703Z,-1.14
2023-01-22T06:00:30.948Z,-1.16
2023-01-22T06:01:30.669Z,-1.06
2023-01-22T06:02:31.045Z,-1.09
2023-01-22T06:03:30.729Z,-1.09
2023-01-22T06:04:30.857Z,-1.11
2023-01-22T06:05:30.929Z,-1.11
2023-01-22T06:06:30.571Z,-1.1
2023-01-22T06:07:30.801Z,-1.11
2023-01-22T06:08:31.981Z,-1.09
2023-01-22T06:09:30.751Z,-1.11
2023-01-22T06:10:30.739Z,-1.13
2023-01-22T06:11:30.727Z,-1.06
2023-01-22T06:12:30.812Z,-1.1
2023-01-22T06:13:31.013Z,-1.19
2023-01-22T06:14:30.413Z,-1.14
2023-01-22T06:15:30.382Z,-1.1
2023-01-22T06:16:30.349Z,-1.17
2023-01-22T06:17:30.608Z,-1.14
2023-01-22T06:18:30.575Z,-1.19
2023-01-22T06:19:30.282Z,-1.19
2023-01-22T06:20:30.371Z,-1.24
2023-01-22T06:21:30.253Z,-1.14
2023-01-22T06:22:30.479Z,-1.11
2023-01-22T06:23:30.462Z,-1.1
2023-01-22T06:24:30.437Z,-1.21
2023-01-22T06:25:30.427Z,-1.22
2023-01-22T06:26:30.419Z,-1.21
2023-01-22T06:27:30.132Z,-1.11
2023-01-22T06:28:30.493Z,-1.21
2023-01-22T06:29:30.603Z,-1.25
2023-01-22T06:30:29.803Z,-1.16
2023-01-22T06:31:30.720Z,-1.13
2023-01-22T06:32:30.067Z,-1.25
2023-01-22T06:33:30.246Z,-1.07
2023-01-22T06:34:30.243Z,-1.13
2023-01-22T06:35:29.953Z,-1.21
2023-01-22T06:36:29.947Z,-1.22
2023-01-22T06:37:29.683Z,-1.13
2023-01-22T06:38:30.157Z,-1.09
2023-01-22T06:39:29.868Z,-1.13
2023-01-22T06:40:29.859Z,-1.06
2023-01-22T06:41:30.100Z,-1.16
2023-01-22T06:42:29.806Z,-1.09
2023-01-22T06:43:30.057Z,-1.22
2023-01-22T06:44:30.169Z,-1.13
2023-01-22T06:45:30.260Z,-1.14
2023-01-22T06:46:30.175Z,-1.13
2023-01-22T06:47:29.959Z,-1.06
2023-01-22T06:48:29.680Z,-1.11
2023-01-22T06:49:29.933Z,-1.19
2023-01-22T06:50:29.925Z,-1.13
2023-01-22T06:51:30.001Z,-1.17
2023-01-22T06:52:29.344Z,-1.11
2023-01-22T06:53:29.602Z,-1.13
2023-01-22T06:54:29.832Z,-1.22
2023-01-22T06:55:29.533Z,-1.21
2023-01-22T06:56:29.526Z,-1.19
2023-01-22T06:57:29.764Z,-1.22
2023-01-22T06:58:29.510Z,-1.14
2023-01-22T06:59:29.469Z,-1.14
2023-01-22T07:00:29.823Z,-1.11
2023-01-22T07:01:30.072Z,-1.13
2023-01-22T07:02:29.653Z,-1.06
2023-01-22T07:03:29.860Z,-1.11
2023-01-22T07:04:29.643Z,-1.04
2023-01-22T07:05:29.607Z,-1.13
2023-01-22T07:06:29.329Z,-1.13
2023-01-22T07:07:29.546Z,-1.16
2023-01-22T07:08:29.533Z,-1.13
2023-01-22T07:09:29.517Z,-1.14
2023-01-22T07:10:29.581Z,-1.1
2023-01-22T07:11:29.200Z,-1.03
2023-01-22T07:12:29.202Z,-0.99
2023-01-22T07:13:29.467Z,-1.04
2023-01-22T07:14:41.494Z,-0.98
2023-01-22T07:15:29.137Z,-0.99
2023-01-22T07:16:29.381Z,-0.98
2023-01-22T07:17:29.579Z,-0.92
2023-01-22T07:18:29.099Z,-0.99
2023-01-22T07:19:29.309Z,-0.99
2023-01-22T07:20:29.105Z,-0.95
2023-01-22T07:21:28.994Z,-0.99
2023-01-22T07:22:29.237Z,-0.98
2023-01-22T07:23:28.999Z,-0.98
2023-01-22T07:24:29.191Z,-0.98
2023-01-22T07:25:28.945Z,-0.95
2023-01-22T07:26:28.694Z,-0.98
2023-01-22T07:27:28.909Z,-0.96
2023-01-22T07:28:28.902Z,-0.92
2023-01-22T07:29:29.100Z,-0.95
2023-01-22T07:30:28.946Z,-0.98
2023-01-22T07:31:28.879Z,-0.98
2023-01-22T07:32:29.155Z,-0.98
2023-01-22T07:33:29.253Z,-0.98
2023-01-22T07:34:28.753Z,-0.96
2023-01-22T07:35:28.990Z,-0.93
2023-01-22T07:36:28.684Z,-0.95
2023-01-22T07:37:28.927Z,-0.87
2023-01-22T07:38:28.927Z,-0.96
2023-01-22T07:39:29.398Z,-0.95
2023-01-22T07:40:29.200Z,-0.98
2023-01-22T07:41:31.206Z,-0.95
2023-01-22T07:42:29.606Z,-0.96
2023-01-22T07:43:29.557Z,-0.89
2023-01-22T07:44:29.025Z,-0.87
2023-01-22T07:45:29.258Z,-0.84
2023-01-22T07:46:29.534Z,-0.85
2023-01-22T07:47:29.217Z,-0.87
2023-01-22T07:48:29.347Z,-0.82
2023-01-22T07:49:29.676Z,-0.82
2023-01-22T07:50:29.298Z,-0.85
2023-01-22T07:51:29.499Z,-0.84
2023-01-22T07:52:28.857Z,-0.84
2023-01-22T07:53:28.838Z,-0.85
2023-01-22T07:54:29.338Z,-0.91
2023-01-22T07:55:29.310Z,-0.89
2023-01-22T07:56:29.298Z,-0.87
2023-01-22T07:57:29.026Z,-0.85
2023-01-22T07:58:28.988Z,-0.82
2023-01-22T07:59:28.970Z,-0.87
2023-01-22T08:00:29.254Z,-0.85
2023-01-22T08:01:29.194Z,-0.8
2023-01-22T08:02:29.067Z,-0.79
2023-01-22T08:03:28.909Z,-0.82
2023-01-22T08:04:29.271Z,-0.8
2023-01-22T08:05:29.353Z,-0.85
2023-01-22T08:06:29.157Z,-0.76
2023-01-22T08:07:30.317Z,-0.74
2023-01-22T08:08:28.784Z,-0.79
2023-01-22T08:09:29.026Z,-0.79
2023-01-22T08:10:28.751Z,-0.73
2023-01-22T08:11:28.489Z,-0.85
2023-01-22T08:12:28.709Z,-0.82
2023-01-22T08:13:28.674Z,-0.85
2023-01-22T08:14:28.410Z,-0.84
2023-01-22T08:15:28.641Z,-0.79
2023-01-22T08:16:29.181Z,-0.87
2023-01-22T08:17:28.601Z,-0.8
2023-01-22T08:18:28.842Z,-0.74
2023-01-22T08:19:28.819Z,-0.8
2023-01-22T08:20:28.700Z,-0.69
2023-01-22T08:21:29.028Z,-0.72
2023-01-22T08:22:28.761Z,-0.7
2023-01-22T08:23:28.984Z,-0.69
2023-01-22T08:24:28.712Z,-0.62
2023-01-22T08:25:28.681Z,-0.72
2023-01-22T08:26:28.666Z,-0.62
2023-01-22T08:27:28.393Z,-0.66
2023-01-22T08:28:28.638Z,-0.61
2023-01-22T08:29:28.346Z,-0.61
2023-01-22T08:30:28.599Z,-0.62
2023-01-22T08:31:33.621Z,-0.55
2023-01-22T08:32:28.753Z,-0.54
2023-01-22T08:33:28.286Z,-0.59
2023-01-22T08:34:28.517Z,-0.55
2023-01-22T08:35:29.393Z,-0.55
2023-01-22T08:36:28.335Z,-0.67
2023-01-22T08:37:28.668Z,-0.56
2023-01-22T08:38:28.438Z,-0.64
2023-01-22T08:39:27.881Z,-0.58
2023-01-22T08:40:28.385Z,-0.46
2023-01-22T08:41:28.125Z,-0.4
2023-01-22T08:42:29.109Z,-0.49
2023-01-22T08:43:29.323Z,-0.41
2023-01-22T08:44:29.062Z,-0.38
2023-01-22T08:45:29.228Z,-0.43
2023-01-22T08:46:29.268Z,-0.34
2023-01-22T08:47:28.989Z,-0.33
2023-01-22T08:48:28.964Z,-0.33
2023-01-22T08:49:29.207Z,-0.36
2023-01-22T08:50:29.396Z,-0.33
2023-01-22T08:51:29.135Z,-0.37
2023-01-22T08:52:29.311Z,-0.43
2023-01-22T08:53:35.041Z,-0.31
2023-01-22T08:54:35.058Z,-0.3
2023-01-22T08:55:29.209Z,-0.4
2023-01-22T08:56:28.551Z,-0.38
2023-01-22T08:57:29.053Z,-0.41
2023-01-22T08:58:28.759Z,-0.37
2023-01-22T08:59:30.861Z,-0.34
2023-01-22T09:00:29.150Z,-0.33
2023-01-22T09:01:29.166Z,-0.33
2023-01-22T09:02:29.287Z,-0.28
2023-01-22T09:03:28.678Z,-0.25
2023-01-22T09:04:29.357Z,-0.19
2023-01-22T09:05:29.620Z,-0.22
2023-01-22T09:06:29.583Z,-0.38
2023-01-22T09:07:29.566Z,-0.3
2023-01-22T09:08:29.381Z,-0.3
2023-01-22T09:09:29.368Z,-0.28
2023-01-22T09:10:29.991Z,-0.3
2023-01-22T09:11:29.320Z,-0.37
2023-01-22T09:12:29.437Z,-0.38
2023-01-22T09:13:29.428Z,-0.36
2023-01-22T09:14:29.458Z,-0.4
2023-01-22T09:15:29.385Z,-0.45
2023-01-22T09:16:29.002Z,-0.4
2023-01-22T09:17:29.339Z,-0.34
2023-01-22T09:18:29.331Z,-0.28
2023-01-22T09:19:29.360Z,-0.31
2023-01-22T09:20:29.043Z,-0.45
2023-01-22T09:21:29.301Z,-0.33
2023-01-22T09:22:29.231Z,-0.41
2023-01-22T09:23:28.959Z,-0.31
2023-01-22T09:24:29.055Z,-0.34
2023-01-22T09:25:29.375Z,-0.36
2023-01-22T09:26:29.207Z,-0.36
2023-01-22T09:27:29.262Z,-0.28
2023-01-22T09:28:29.172Z,-0.34
2023-01-22T09:29:28.876Z,-0.27
2023-01-22T09:30:28.655Z,-0.25
2023-01-22T09:31:29.031Z,-0.25
2023-01-22T09:32:28.516Z,-0.27
2023-01-22T09:33:29.012Z,-0.36
2023-01-22T09:34:29.016Z,-0.27
2023-01-22T09:35:28.999Z,-0.25
2023-01-22T09:36:28.977Z,-0.28
2023-01-22T09:37:28.669Z,-0.16
2023-01-22T09:38:28.427Z,-0.13
2023-01-22T09:39:28.644Z,-0.09
2023-01-22T09:40:28.752Z,-0.05
2023-01-22T09:41:28.977Z,0.01
2023-01-22T09:42:28.564Z,0.16
2023-01-22T09:43:28.943Z,0.1
2023-01-22T09:44:28.776Z,0.1
2023-01-22T09:45:28.518Z,0.13
2023-01-22T09:46:28.489Z,0.16
2023-01-22T09:47:28.469Z,0.14
2023-01-22T09:48:28.452Z,0.23
2023-01-22T09:49:28.430Z,0.19
2023-01-22T09:50:28.469Z,0.32
2023-01-22T09:51:28.858Z,0.34
2023-01-22T09:52:28.378Z,0.27
2023-01-22T09:53:28.103Z,0.37
2023-01-22T09:54:28.640Z,0.47
2023-01-22T09:55:28.311Z,0.35
2023-01-22T09:56:28.671Z,0.45
2023-01-22T09:57:36.776Z,0.39
2023-01-22T09:58:28.531Z,0.31
2023-01-22T09:59:28.622Z,0.26
2023-01-22T10:00:28.476Z,0.31
2023-01-22T10:01:28.317Z,0.16
2023-01-22T10:02:28.363Z,0.13
2023-01-22T10:03:28.425Z,0.1
2023-01-22T10:04:28.543Z,0.03
2023-01-22T10:05:28.405Z,0.06
2023-01-22T10:06:28.346Z,0.16
2023-01-22T10:07:28.078Z,0.13
2023-01-22T10:08:28.304Z,0.1
2023-01-22T10:09:28.282Z,0.1
2023-01-22T10:10:28.012Z,0.13
2023-01-22T10:11:28.253Z,0.13
2023-01-22T10:12:28.337Z,0.08
2023-01-22T10:13:34.111Z,0.14
2023-01-22T10:14:28.080Z,0.17
2023-01-22T10:15:28.296Z,0.17
2023-01-22T10:16:27.806Z,0.1
2023-01-22T10:17:28.123Z,0.16
2023-01-22T10:18:28.165Z,0.13
2023-01-22T10:19:28.088Z,0.21
2023-01-22T10:20:27.832Z,0.21
2023-01-22T10:21:28.060Z,0.26
2023-01-22T10:22:27.788Z,0.27
2023-01-22T10:23:27.770Z,0.34
2023-01-22T10:24:27.986Z,0.34
2023-01-22T10:25:27.967Z,0.39
2023-01-22T10:26:27.938Z,0.45
2023-01-22T10:27:27.400Z,0.47
2023-01-22T10:28:27.759Z,0.45
2023-01-22T10:29:27.632Z,0.39
2023-01-22T10:30:28.020Z,0.38
2023-01-22T10:31:29.648Z,0.38
2023-01-22T10:32:27.591Z,0.35
2023-01-22T10:33:27.283Z,0.47
2023-01-22T10:34:27.819Z,0.39
2023-01-22T10:35:27.496Z,0.41
2023-01-22T10:36:27.740Z,0.57
2023-01-22T10:37:27.726Z,0.47
2023-01-22T10:38:27.713Z,0.5
2023-01-22T10:39:27.799Z,0.53
2023-01-22T10:40:27.663Z,0.47
2023-01-22T10:41:27.385Z,0.5
2023-01-22T10:42:27.364Z,0.5
2023-01-22T10:43:27.603Z,0.53
2023-01-22T10:44:27.436Z,0.48
2023-01-22T10:45:27.597Z,0.56
2023-01-22T10:46:27.619Z,0.47
2023-01-22T10:47:27.417Z,0.53
2023-01-22T10:48:26.992Z,0.64
2023-01-22T10:49:27.518Z,0.57
2023-01-22T10:50:28.790Z,0.64
2023-01-22T10:51:28.550Z,0.57
2023-01-22T10:52:28.182Z,0.58
2023-01-22T10:53:28.139Z,0.5
2023-01-22T10:54:28.446Z,0.63
2023-01-22T10:55:28.715Z,0.66
2023-01-22T10:56:28.632Z,0.6
2023-01-22T10:57:28.451Z,0.69
2023-01-22T10:58:28.190Z,0.66
2023-01-22T10:59:28.305Z,0.78
2023-01-22T11:00:28.446Z,0.78
2023-01-22T11:01:28.181Z,0.69
2023-01-22T11:02:28.496Z,0.67
2023-01-22T11:03:28.315Z,0.72
2023-01-22T11:04:28.193Z,0.76
2023-01-22T11:05:28.171Z,0.84
2023-01-22T11:06:28.145Z,0.78
2023-01-22T11:07:28.114Z,0.86
2023-01-22T11:08:27.826Z,1.07
2023-01-22T11:09:28.089Z,1.02
2023-01-22T11:10:28.074Z,1.1
2023-01-22T11:11:28.574Z,1.04
2023-01-22T11:12:28.330Z,0.97
2023-01-22T11:13:28.521Z,1.1
2023-01-22T11:14:28.488Z,1.12
2023-01-22T11:15:28.356Z,1.07
2023-01-22T11:16:34.425Z,1.11
2023-01-22T11:17:28.335Z,1.08
2023-01-22T11:18:28.270Z,1.11
2023-01-22T11:19:41.525Z,1.12
2023-01-22T11:20:28.237Z,1.08
2023-01-22T11:21:28.094Z,1.15
2023-01-22T11:22:28.080Z,1.12
2023-01-22T11:23:28.319Z,1.07
2023-01-22T11:24:27.797Z,1.08
2023-01-22T11:25:28.022Z,1.02
2023-01-22T11:26:28.295Z,0.97
2023-01-22T11:27:28.230Z,0.96
2023-01-22T11:28:28.229Z,0.94
2023-01-22T11:29:27.777Z,1.03
2023-01-22T11:30:29.685Z,1.02
2023-01-22T11:31:28.754Z,1.02
2023-01-22T11:32:27.880Z,1
2023-01-22T11:33:28.011Z,1.04
2023-01-22T11:34:28.532Z,1.02
2023-01-22T11:35:28.231Z,1
2023-01-22T11:36:27.835Z,1.1
2023-01-22T11:37:28.329Z,1.07
2023-01-22T11:38:28.319Z,1.02
2023-01-22T11:39:28.281Z,0.92
2023-01-22T11:40:28.027Z,0.89
2023-01-22T11:41:28.264Z,0.79
2023-01-22T11:42:28.256Z,0.81
2023-01-22T11:43:28.216Z,0.93
2023-01-22T11:44:27.953Z,1.02
2023-01-22T11:45:27.927Z,1.12
2023-01-22T11:46:28.361Z,1.15
2023-01-22T11:47:27.905Z,1.15
2023-01-22T11:48:27.850Z,1.21
2023-01-22T11:49:28.222Z,1.17
2023-01-22T11:50:28.210Z,1.12
2023-01-22T11:51:28.397Z,1.15
2023-01-22T11:52:28.081Z,1.04
2023-01-22T11:53:28.044Z,1.08
2023-01-22T11:54:28.002Z,1.15
2023-01-22T11:55:27.483Z,1.07
2023-01-22T11:56:27.969Z,1.1
2023-01-22T11:57:27.967Z,1.04
2023-01-22T11:58:27.943Z,0.94
2023-01-22T11:59:27.653Z,0.97
2023-01-22T12:00:27.909Z,0.94
2023-01-22T12:01:27.874Z,0.85
2023-01-22T12:02:27.955Z,0.85
2023-01-22T12:03:27.697Z,0.84
2023-01-22T12:04:27.807Z,0.72
2023-01-22T12:05:29.911Z,0.76
2023-01-22T12:06:27.908Z,0.58
2023-01-22T12:07:27.614Z,0.56
2023-01-22T12:08:27.465Z,0.58
2023-01-22T12:09:27.725Z,0.44
2023-01-22T12:10:27.742Z,0.41
2023-01-22T12:11:27.683Z,0.34
2023-01-22T12:12:27.130Z,0.31
2023-01-22T12:13:27.385Z,0.26
2023-01-22T12:14:27.359Z,0.21
2023-01-22T12:15:27.072Z,0.27
2023-01-22T12:16:27.802Z,0.21
2023-01-22T12:17:27.582Z,0.19
2023-01-22T12:18:27.269Z,0.19
2023-01-22T12:19:27.260Z,0.13
2023-01-22T12:20:27.529Z,0.19
2023-01-22T12:21:27.388Z,0.08
2023-01-22T12:22:27.567Z,0.2
2023-01-22T12:23:33.083Z,0.01
2023-01-22T12:24:27.518Z,0.14
2023-01-22T12:25:27.413Z,0.13
2023-01-22T12:26:27.113Z,0.13
2023-01-22T12:27:27.126Z,0.08
2023-01-22T12:28:27.094Z,0.14
2023-01-22T12:29:26.850Z,0.14
2023-01-22T12:30:27.300Z,0.13
2023-01-22T12:31:27.429Z,0.06
2023-01-22T12:32:27.257Z,0.13
2023-01-22T12:33:26.974Z,0.17
2023-01-22T12:34:26.960Z,0.14
2023-01-22T12:35:27.200Z,0.14
2023-01-22T12:36:26.917Z,0.1
2023-01-22T12:37:27.259Z,0.1
2023-01-22T12:38:27.269Z,0.1
2023-01-22T12:39:27.140Z,0.09
2023-01-22T12:40:26.961Z,0.05
2023-01-22T12:41:27.111Z,0.17
2023-01-22T12:42:27.181Z,0.1
2023-01-22T12:43:26.783Z,0.05
2023-01-22T12:44:27.002Z,0.16
2023-01-22T12:45:26.754Z,0.23
2023-01-22T12:46:27.209Z,0.2
2023-01-22T12:47:26.440Z,0.16
2023-01-22T12:48:26.942Z,0.26
2023-01-22T12:49:26.929Z,0.24
2023-01-22T12:50:27.012Z,0.2
2023-01-22T12:51:27.125Z,0.26
2023-01-22T12:52:26.587Z,0.13
2023-01-22T12:53:26.688Z,0.13
2023-01-22T12:54:26.969Z,0.13
2023-01-22T12:55:26.778Z,0.14
2023-01-22T12:56:26.889Z,0.17
2023-01-22T12:57:26.499Z,0.14
2023-01-22T12:58:26.740Z,0.13
2023-01-22T12:59:26.712Z,0.1
2023-01-22T13:00:26.777Z,0.09
2023-01-22T13:01:26.694Z,0.03
2023-01-22T13:02:26.925Z,0.02
2023-01-22T13:03:35.859Z,-0.02
2023-01-22T13:04:26.601Z,-0.04
2023-01-22T13:05:26.338Z,-0.1
2023-01-22T13:06:26.575Z,-0.12
2023-01-22T13:07:26.589Z,-0.09
2023-01-22T13:08:26.532Z,-0.1
2023-01-22T13:09:26.378Z,-0.05
2023-01-22T13:10:26.990Z,-0.1
2023-01-22T13:11:25.984Z,-0.13
2023-01-22T13:12:26.324Z,-0.05
2023-01-22T13:13:26.250Z,-0.07
2023-01-22T13:14:26.251Z,-0.05
2023-01-22T13:15:26.498Z,-0.02
2023-01-22T13:16:26.255Z,-0.02
2023-01-22T13:17:26.336Z,-0.07
2023-01-22T13:18:26.347Z,-0.13